Terminal Aerodrome Forecast
Issued by NWS

Home | Current Version | Previous Version | Text Only | Print | Product List | Glossary On
Versions: 1 2 3 4 5 6 7 8 9 10 11 12 13 14 15 16 17 18 19 20 21 22
000
FTUS43 KAPX 291120
TAFTVC
TAF
KTVC 291120Z 2912/3012 20008KT P6SM SCT090 BKN200
     FM291700 22012G18KT P6SM VCSH BKN050
     FM292300 24012KT P6SM BKN060 BKN120
     FM300300 28008KT P6SM BKN060=

USA.gov is the U.S. government's official web portal to all federal, state and local government web resources and services.